createdAt,value
2022-10-28T08:37:43.420Z,12.24
2022-10-28T08:39:46.023Z,12.29
2022-10-28T08:41:58.647Z,12.28
2022-10-28T08:44:20.893Z,12.37
2022-10-28T08:46:49.744Z,12.47
2022-10-28T08:48:51.979Z,12.52
2022-10-28T08:51:00.766Z,12.59
2022-10-28T08:53:27.059Z,12.75
2022-10-28T08:55:35.124Z,12.97
2022-10-28T08:57:51.086Z,12.96
2022-10-28T08:59:54.072Z,12.86
2022-10-28T09:02:22.075Z,12.88
2022-10-28T09:04:44.114Z,12.83
2022-10-28T09:06:46.587Z,12.78
2022-10-28T09:08:50.083Z,12.75
2022-10-28T09:11:06.938Z,12.63
2022-10-28T09:13:17.848Z,12.79
2022-10-28T09:15:47.595Z,12.82
2022-10-28T09:18:43.986Z,12.68
2022-10-28T09:20:54.050Z,12.72
2022-10-28T09:22:58.726Z,13.08
2022-10-28T09:25:17.701Z,13.03
2022-10-28T09:27:49.868Z,13.20
2022-10-28T09:30:07.547Z,13.17
2022-10-28T09:32:36.754Z,13.29
2022-10-28T09:34:51.186Z,13.28
2022-10-28T09:36:58.582Z,13.14
2022-10-28T09:39:03.488Z,13.13
2022-10-28T09:41:16.257Z,12.94
2022-10-28T09:43:48.870Z,13.08
2022-10-28T09:45:53.686Z,13.26
2022-10-28T09:48:14.528Z,13.08
2022-10-28T09:50:20.935Z,13.23
2022-10-28T09:52:28.532Z,13.18
2022-10-28T09:54:35.960Z,12.84
2022-10-28T09:56:39.194Z,13.32
2022-10-28T09:58:46.746Z,13.38
2022-10-28T10:00:49.692Z,13.38
2022-10-28T10:02:57.683Z,13.30
2022-10-28T10:05:02.698Z,13.22
2022-10-28T10:07:12.281Z,13.45
2022-10-28T10:09:21.717Z,13.23
2022-10-28T10:11:44.964Z,13.05
2022-10-28T10:13:47.673Z,12.63
2022-10-28T10:15:57.083Z,12.98
2022-10-28T10:18:02.292Z,13.15
2022-10-28T10:20:13.391Z,13.22
2022-10-28T10:22:34.058Z,13.31
2022-10-28T10:24:36.336Z,13.16
2022-10-28T10:26:38.559Z,13.41
2022-10-28T10:28:46.689Z,13.39
2022-10-28T10:30:54.750Z,13.13
2022-10-28T10:32:57.964Z,13.42
2022-10-28T10:35:23.075Z,13.46
2022-10-28T10:37:25.467Z,13.43
2022-10-28T10:39:35.392Z,13.39
2022-10-28T10:41:41.809Z,13.38
2022-10-28T10:43:44.018Z,13.62
2022-10-28T10:46:00.825Z,13.55
2022-10-28T10:48:12.110Z,13.52
2022-10-28T10:50:28.343Z,13.51
2022-10-28T10:52:30.516Z,13.51
2022-10-28T10:54:36.090Z,13.19
2022-10-28T10:56:38.507Z,13.30
2022-10-28T10:58:49.816Z,13.45
2022-10-28T11:00:56.217Z,13.37
2022-10-28T11:02:59.903Z,13.56
2022-10-28T11:05:06.190Z,13.63
2022-10-28T11:07:15.722Z,13.67
2022-10-28T11:09:23.327Z,13.50
2022-10-28T11:11:39.935Z,13.27
2022-10-28T11:13:45.963Z,13.33
2022-10-28T11:16:00.776Z,13.27
2022-10-28T11:18:17.049Z,13.14
2022-10-28T11:20:53.598Z,13.43
2022-10-28T11:23:01.912Z,13.53
2022-10-28T11:25:44.093Z,13.37
2022-10-28T11:28:23.423Z,13.58
2022-10-28T11:31:10.334Z,13.46
2022-10-28T11:33:35.161Z,13.26
2022-10-28T11:35:40.650Z,13.46
2022-10-28T11:38:11.061Z,13.47
2022-10-28T11:40:27.604Z,13.47
2022-10-28T11:42:38.802Z,13.57
2022-10-28T11:44:59.647Z,13.56
2022-10-28T11:47:20.928Z,13.44
2022-10-28T11:50:01.802Z,13.36
2022-10-28T11:52:13.394Z,13.04
2022-10-28T11:54:18.197Z,13.01
2022-10-28T11:56:39.570Z,12.97
2022-10-28T11:58:53.461Z,13.04
2022-10-28T12:01:14.652Z,12.95
2022-10-28T12:03:32.406Z,12.86
2022-10-28T12:05:59.238Z,13.16
2022-10-28T12:08:09.831Z,13.15
2022-10-28T12:10:21.710Z,13.30
2022-10-28T12:12:37.264Z,13.41
2022-10-28T12:14:47.582Z,13.35
2022-10-28T12:17:21.442Z,13.26
2022-10-28T12:19:38.462Z,13.22
2022-10-28T12:21:46.173Z,13.35
2022-10-28T12:23:49.575Z,13.47
2022-10-28T12:25:57.334Z,13.56
2022-10-28T12:28:04.557Z,13.50
2022-10-28T12:30:13.244Z,13.49
2022-10-28T12:32:22.691Z,13.50
2022-10-28T12:34:34.030Z,13.34
2022-10-28T12:36:45.769Z,13.40
2022-10-28T12:39:06.650Z,13.44
2022-10-28T12:41:11.627Z,13.43
2022-10-28T12:43:24.225Z,13.43
2022-10-28T12:45:28.689Z,13.42
2022-10-28T12:47:43.384Z,13.63
2022-10-28T12:50:08.079Z,13.55
2022-10-28T12:52:22.201Z,13.54
2022-10-28T12:54:53.542Z,13.63
2022-10-28T12:57:20.046Z,13.54
2022-10-28T12:59:35.312Z,13.58
2022-10-28T13:01:38.096Z,13.61
2022-10-28T13:03:41.128Z,13.56
2022-10-28T13:06:09.180Z,13.31
2022-10-28T13:08:39.107Z,13.21
2022-10-28T13:10:52.605Z,13.27
2022-10-28T13:13:15.068Z,13.27
2022-10-28T13:15:25.834Z,13.21
2022-10-28T13:17:28.177Z,13.30
2022-10-28T13:19:36.227Z,13.28
2022-10-28T13:22:02.767Z,13.32
2022-10-28T13:24:16.515Z,13.31
2022-10-28T13:26:32.751Z,13.22
2022-10-28T13:28:42.203Z,13.13
2022-10-28T13:31:05.993Z,13.37
2022-10-28T13:33:16.485Z,13.15
2022-10-28T13:35:25.392Z,13.25
2022-10-28T13:37:36.668Z,13.21
2022-10-28T13:39:41.635Z,13.27
2022-10-28T13:41:47.893Z,13.38
2022-10-28T13:43:58.355Z,13.35
2022-10-28T13:46:00.576Z,13.29
2022-10-28T13:48:40.630Z,13.32
2022-10-28T13:50:43.067Z,13.10
2022-10-28T13:55:27.272Z,13.09
2022-10-28T13:57:36.765Z,13.30
2022-10-28T13:59:49.924Z,13.18
2022-10-28T14:02:07.818Z,13.23
2022-10-28T14:04:26.399Z,13.25
2022-10-28T14:06:32.955Z,13.38
2022-10-28T14:08:40.163Z,13.25
2022-10-28T14:11:03.908Z,13.26
2022-10-28T14:13:21.326Z,13.26
2022-10-28T14:15:27.002Z,13.30
2022-10-28T14:17:39.682Z,13.16
2022-10-28T14:19:49.557Z,13.37
2022-10-28T14:22:02.140Z,13.30
2022-10-28T14:24:29.464Z,13.04
2022-10-28T14:26:31.713Z,13.04
2022-10-28T14:28:33.861Z,12.75
2022-10-28T14:30:37.381Z,12.78
2022-10-28T14:32:44.846Z,12.71
2022-10-28T14:34:48.169Z,12.72
2022-10-28T14:37:12.586Z,12.66
2022-10-28T14:39:35.561Z,12.82
2022-10-28T14:42:01.077Z,13.08
2022-10-28T14:44:23.032Z,13.02
2022-10-28T14:46:50.368Z,13.07
2022-10-28T14:48:55.406Z,13.03
2022-10-28T14:51:00.260Z,13.00
2022-10-28T14:53:07.645Z,13.05
2022-10-28T14:55:22.517Z,12.97
2022-10-28T14:57:34.046Z,12.93
2022-10-28T14:59:40.044Z,12.89
2022-10-28T15:02:31.422Z,12.78
2022-10-28T15:04:34.180Z,12.70
2022-10-28T15:06:40.758Z,12.73
2022-10-28T15:08:43.145Z,12.79
2022-10-28T15:10:49.327Z,12.87
2022-10-28T15:12:54.537Z,12.68
2022-10-28T15:14:57.403Z,12.61
2022-10-28T15:17:09.241Z,12.85
2022-10-28T15:19:17.025Z,12.98
2022-10-28T15:21:21.765Z,12.94
2022-10-28T15:23:24.314Z,12.93
2022-10-28T15:25:27.574Z,12.94
2022-10-28T15:27:32.219Z,12.93
2022-10-28T15:29:35.043Z,13.04
2022-10-28T15:32:26.571Z,12.92
2022-10-28T15:34:29.538Z,12.58
2022-10-28T15:36:32.104Z,12.52
2022-10-28T15:38:39.336Z,12.74
2022-10-28T15:40:41.588Z,12.60
2022-10-28T15:43:02.509Z,12.67
2022-10-28T15:45:05.908Z,12.71
2022-10-28T15:47:33.401Z,12.70
2022-10-28T15:49:40.653Z,12.75
2022-10-28T15:51:42.865Z,12.54
2022-10-28T15:53:46.714Z,12.76
2022-10-28T15:56:20.713Z,12.55
2022-10-28T15:58:33.269Z,12.40
2022-10-28T16:00:50.212Z,12.36
2022-10-28T16:02:57.146Z,12.30
2022-10-28T16:04:59.624Z,12.30
2022-10-28T16:07:08.309Z,12.22
2022-10-28T16:09:18.948Z,12.18
2022-10-28T16:11:21.206Z,12.23
2022-10-28T16:13:35.098Z,12.40
2022-10-28T16:15:48.310Z,12.58
2022-10-28T16:17:50.495Z,12.64
2022-10-28T16:19:52.683Z,12.48
2022-10-28T16:21:56.021Z,12.48
2022-10-28T16:23:59.163Z,12.53
2022-10-28T16:26:01.355Z,12.63
2022-10-28T16:28:05.731Z,12.73
2022-10-28T16:30:08.639Z,12.69
2022-10-28T16:32:12.814Z,12.79
2022-10-28T16:34:15.356Z,12.74
2022-10-28T16:36:17.605Z,12.81
2022-10-28T16:38:20.049Z,12.82
2022-10-28T16:40:50.974Z,12.77
2022-10-28T16:42:46.588Z,12.74
2022-10-28T16:44:49.390Z,12.83
2022-10-28T16:46:51.996Z,12.79
2022-10-28T16:48:54.550Z,12.83
2022-10-28T16:51:00.521Z,12.77
2022-10-28T16:53:03.003Z,12.70
2022-10-28T16:55:13.315Z,12.74
2022-10-28T16:57:16.567Z,12.75
2022-10-28T16:59:19.395Z,12.79
2022-10-28T17:01:22.839Z,12.92
2022-10-28T17:03:25.248Z,13.03
2022-10-28T17:05:28.435Z,13.03
2022-10-28T17:07:31.344Z,12.90
2022-10-28T17:09:33.595Z,12.71
2022-10-28T17:11:36.067Z,12.73
2022-10-28T17:13:38.311Z,12.98
2022-10-28T17:15:41.955Z,12.96
2022-10-28T17:17:45.010Z,13.05
2022-10-28T17:19:47.328Z,12.80
2022-10-28T17:21:49.538Z,12.72
2022-10-28T17:23:52.043Z,12.68
2022-10-28T17:25:59.467Z,12.70
2022-10-28T17:28:04.747Z,12.75
2022-10-28T17:30:08.268Z,12.87
2022-10-28T17:32:10.924Z,12.82
2022-10-28T17:34:13.731Z,12.85
2022-10-28T17:36:16.605Z,12.88
2022-10-28T17:38:19.208Z,12.92
2022-10-28T17:40:22.222Z,12.86
2022-10-28T17:42:24.884Z,13.02
2022-10-28T17:44:27.219Z,12.97
2022-10-28T17:46:29.870Z,12.97
2022-10-28T17:48:32.760Z,13.02
2022-10-28T17:50:34.994Z,12.93
2022-10-28T17:52:38.601Z,12.85
2022-10-28T17:54:41.405Z,12.72
2022-10-28T17:56:43.732Z,12.69
2022-10-28T17:58:46.140Z,12.78
2022-10-28T18:00:48.609Z,12.76
2022-10-28T18:02:55.949Z,12.70
2022-10-28T18:04:58.324Z,12.59
2022-10-28T18:07:00.596Z,12.58
2022-10-28T18:09:03.909Z,12.70
2022-10-28T18:11:07.786Z,12.74
2022-10-28T18:13:10.270Z,12.78
2022-10-28T18:15:13.137Z,12.74
2022-10-28T18:17:17.315Z,12.60
2022-10-28T18:19:20.102Z,12.71
2022-10-28T18:21:24.417Z,12.77
2022-10-28T18:23:27.233Z,12.83
2022-10-28T18:25:30.016Z,12.89
2022-10-28T18:27:33.131Z,12.73
2022-10-28T18:29:36.309Z,12.75
2022-10-28T18:31:40.982Z,12.73
2022-10-28T18:33:44.930Z,12.80
2022-10-28T18:35:48.073Z,12.93
2022-10-28T18:37:50.735Z,12.79
2022-10-28T18:39:53.459Z,12.74
2022-10-28T18:41:56.081Z,12.74
2022-10-28T18:44:00.595Z,12.58
2022-10-28T18:46:03.375Z,12.57
2022-10-28T18:48:06.827Z,12.67
2022-10-28T18:50:09.393Z,12.58
2022-10-28T18:52:12.135Z,12.49
2022-10-28T18:54:15.109Z,12.45
2022-10-28T18:56:23.648Z,12.36
2022-10-28T18:58:27.362Z,12.36
2022-10-28T19:00:29.919Z,12.31
2022-10-28T19:02:32.344Z,12.28
2022-10-28T19:04:35.011Z,12.30
2022-10-28T19:06:40.276Z,12.25
2022-10-28T19:08:44.177Z,12.30
2022-10-28T19:10:48.617Z,12.45
2022-10-28T19:12:53.169Z,12.37
2022-10-28T19:14:55.730Z,12.41
2022-10-28T19:16:58.712Z,12.43
2022-10-28T19:19:05.589Z,12.47
2022-10-28T19:21:11.990Z,12.43
2022-10-28T19:23:14.866Z,12.48
2022-10-28T19:25:17.297Z,12.36
2022-10-28T19:27:19.632Z,12.33
2022-10-28T19:29:22.107Z,12.28
2022-10-28T19:31:26.406Z,12.37
2022-10-28T19:33:31.184Z,12.53
2022-10-28T19:35:34.491Z,12.44
2022-10-28T19:37:36.818Z,12.44
2022-10-28T19:39:39.132Z,12.25
2022-10-28T19:41:41.778Z,12.25
2022-10-28T19:43:45.005Z,12.33
2022-10-28T19:45:47.297Z,12.29
2022-10-28T19:47:50.668Z,12.20
2022-10-28T19:49:54.388Z,12.29
2022-10-28T19:51:56.718Z,12.40
2022-10-28T19:54:01.282Z,12.45
2022-10-28T19:56:04.354Z,12.30
2022-10-28T19:58:07.094Z,12.27
2022-10-28T20:00:10.394Z,12.23
2022-10-28T20:02:13.910Z,12.26
2022-10-28T20:04:17.509Z,12.33
2022-10-28T20:06:22.042Z,12.30
2022-10-28T20:08:24.325Z,12.37
2022-10-28T20:10:26.985Z,12.32
2022-10-28T20:12:29.448Z,12.17
2022-10-28T20:14:32.638Z,12.11
2022-10-28T20:16:36.349Z,12.06
2022-10-28T20:18:39.498Z,12.08
2022-10-28T20:20:41.769Z,12.12
2022-10-28T20:22:44.622Z,12.02
2022-10-28T20:24:46.927Z,12.13
2022-10-28T20:26:49.189Z,12.20
2022-10-28T20:28:51.750Z,12.29
2022-10-28T20:31:01.638Z,12.33
2022-10-28T20:33:04.168Z,12.32
2022-10-28T20:35:07.115Z,12.47
2022-10-28T20:37:09.364Z,12.56
2022-10-28T20:39:16.887Z,12.56
2022-10-28T20:41:19.731Z,12.57
2022-10-28T20:43:23.886Z,12.55
2022-10-28T20:45:26.067Z,12.42
2022-10-28T20:47:28.626Z,12.28
2022-10-28T20:49:30.867Z,12.25
2022-10-28T20:51:33.511Z,12.30
2022-10-28T20:53:36.634Z,12.34
2022-10-28T20:55:45.257Z,12.45
2022-10-28T20:57:47.436Z,12.43
2022-10-28T20:59:51.651Z,12.48
2022-10-28T21:01:53.924Z,12.63
2022-10-28T21:03:58.527Z,12.42
2022-10-28T21:06:04.160Z,12.27
2022-10-28T21:08:06.703Z,12.42
2022-10-28T21:10:09.774Z,12.40
2022-10-28T21:12:12.399Z,12.44
2022-10-28T21:14:14.960Z,12.44
2022-10-28T21:16:17.598Z,12.47
2022-10-28T21:18:20.071Z,12.42
2022-10-28T21:20:22.546Z,12.37
2022-10-28T21:22:24.789Z,12.30
2022-10-28T21:24:27.272Z,12.38
2022-10-28T21:26:29.462Z,12.41
2022-10-28T21:28:33.110Z,12.42
2022-10-28T21:30:35.518Z,12.35
2022-10-28T21:32:37.809Z,12.23
2022-10-28T21:34:40.152Z,12.32
2022-10-28T21:36:42.674Z,12.46
2022-10-28T21:38:45.472Z,12.41
2022-10-28T21:40:47.722Z,12.45
2022-10-28T21:42:50.453Z,12.38
2022-10-28T21:44:52.993Z,12.44
2022-10-28T21:46:55.430Z,12.35
2022-10-28T21:48:58.180Z,12.52
2022-10-28T21:51:02.446Z,12.49
2022-10-28T21:53:04.632Z,12.40
2022-10-28T21:55:20.052Z,12.44
2022-10-28T21:57:30.207Z,12.38
2022-10-28T21:59:33.311Z,12.43
2022-10-28T22:01:37.081Z,12.44
2022-10-28T22:03:39.628Z,12.30
2022-10-28T22:05:49.956Z,12.33
2022-10-28T22:07:52.208Z,12.45
2022-10-28T22:09:54.700Z,12.40
2022-10-28T22:11:56.919Z,12.40
2022-10-28T22:14:01.659Z,12.44
2022-10-28T22:16:10.893Z,12.40
2022-10-28T22:18:13.061Z,12.54
2022-10-28T22:20:15.745Z,12.46
2022-10-28T22:22:18.274Z,12.34
2022-10-28T22:24:20.456Z,12.25
2022-10-28T22:26:28.613Z,12.10
2022-10-28T22:28:31.646Z,12.25
2022-10-28T22:30:33.829Z,12.25
2022-10-28T22:32:36.026Z,12.42
2022-10-28T22:34:38.493Z,12.43
2022-10-28T22:36:43.222Z,12.46
2022-10-28T22:38:46.235Z,12.45
2022-10-28T22:40:48.963Z,12.58
2022-10-28T22:42:51.163Z,12.58
2022-10-28T22:44:53.334Z,12.64
2022-10-28T22:46:55.925Z,12.80
2022-10-28T22:48:58.192Z,12.78
2022-10-28T22:51:00.710Z,12.89
